sensor_id;sensor_type;location;lat;lon;timestamp;pressure;altitude;pressure_sealevel;temperature;humidity
73700;BME280;62005;50.082;8.988;2023-11-18T00:01:46;101495.69;;;4.40;100.00
73700;BME280;62005;50.082;8.988;2023-11-18T00:04:11;101482.25;;;4.32;100.00
73700;BME280;62005;50.082;8.988;2023-11-18T00:06:42;101487.06;;;4.29;100.00
73700;BME280;62005;50.082;8.988;2023-11-18T00:09:11;101479.50;;;4.24;100.00
73700;BME280;62005;50.082;8.988;2023-11-18T00:11:40;101489.59;;;4.30;100.00
73700;BME280;62005;50.082;8.988;2023-11-18T00:14:07;101490.53;;;4.21;100.00
73700;BME280;62005;50.082;8.988;2023-11-18T00:16:32;101484.88;;;4.24;100.00
73700;BME280;62005;50.082;8.988;2023-11-18T00:18:59;101494.56;;;4.25;100.00
73700;BME280;62005;50.082;8.988;2023-11-18T00:21:24;101488.53;;;4.23;100.00
73700;BME280;62005;50.082;8.988;2023-11-18T00:23:50;101481.81;;;4.19;100.00
73700;BME280;62005;50.082;8.988;2023-11-18T00:26:16;101458.41;;;4.03;100.00
73700;BME280;62005;50.082;8.988;2023-11-18T00:28:41;101444.81;;;3.97;100.00
73700;BME280;62005;50.082;8.988;2023-11-18T00:31:06;101480.44;;;4.15;100.00
73700;BME280;62005;50.082;8.988;2023-11-18T00:33:32;101472.88;;;4.11;100.00
73700;BME280;62005;50.082;8.988;2023-11-18T00:35:57;101477.69;;;4.07;100.00
73700;BME280;62005;50.082;8.988;2023-11-18T00:38:25;101471.25;;;4.00;100.00
73700;BME280;62005;50.082;8.988;2023-11-18T00:40:50;101494.03;;;4.04;100.00
73700;BME280;62005;50.082;8.988;2023-11-18T00:43:16;101461.03;;;3.78;100.00
73700;BME280;62005;50.082;8.988;2023-11-18T00:45:42;101499.72;;;4.01;100.00
73700;BME280;62005;50.082;8.988;2023-11-18T00:48:09;101496.34;;;3.99;100.00
73700;BME280;62005;50.082;8.988;2023-11-18T00:50:34;101453.72;;;3.80;100.00
73700;BME280;62005;50.082;8.988;2023-11-18T00:53:00;101480.91;;;3.93;100.00
73700;BME280;62005;50.082;8.988;2023-11-18T00:55:25;101482.59;;;3.94;100.00
73700;BME280;62005;50.082;8.988;2023-11-18T00:57:51;101498.00;;;4.00;100.00
73700;BME280;62005;50.082;8.988;2023-11-18T01:00:16;101472.50;;;3.88;100.00
73700;BME280;62005;50.082;8.988;2023-11-18T01:02:44;101488.63;;;3.96;100.00
73700;BME280;62005;50.082;8.988;2023-11-18T01:05:10;101499.72;;;4.01;100.00
73700;BME280;62005;50.082;8.988;2023-11-18T01:07:39;101492.66;;;4.00;100.00
73700;BME280;62005;50.082;8.988;2023-11-18T01:10:06;101505.44;;;4.06;100.00
73700;BME280;62005;50.082;8.988;2023-11-18T01:12:32;101501.06;;;4.05;100.00
73700;BME280;62005;50.082;8.988;2023-11-18T01:14:58;101501.06;;;4.05;100.00
73700;BME280;62005;50.082;8.988;2023-11-18T01:17:23;101514.81;;;4.10;100.00
73700;BME280;62005;50.082;8.988;2023-11-18T01:19:49;101511.19;;;4.11;100.00
73700;BME280;62005;50.082;8.988;2023-11-18T01:22:15;101516.22;;;4.14;100.00
73700;BME280;62005;50.082;8.988;2023-11-18T01:24:40;101530.59;;;4.13;100.00
73700;BME280;62005;50.082;8.988;2023-11-18T01:27:05;101516.84;;;4.08;100.00
73700;BME280;62005;50.082;8.988;2023-11-18T01:29:37;101515.06;;;4.17;100.00
73700;BME280;62005;50.082;8.988;2023-11-18T01:32:05;101507.50;;;4.12;100.00
73700;BME280;62005;50.082;8.988;2023-11-18T01:34:35;101528.00;;;4.21;100.00
73700;BME280;62005;50.082;8.988;2023-11-18T01:37:01;101525.25;;;4.13;100.00
73700;BME280;62005;50.082;8.988;2023-11-18T01:39:26;101518.97;;;4.22;100.00
73700;BME280;62005;50.082;8.988;2023-11-18T01:41:52;101515.06;;;4.17;100.00
73700;BME280;62005;50.082;8.988;2023-11-18T01:44:18;101532.72;;;4.27;100.00
73700;BME280;62005;50.082;8.988;2023-11-18T01:46:45;101500.16;;;4.14;100.00
73700;BME280;62005;50.082;8.988;2023-11-18T01:49:13;101516.44;;;4.21;100.00
73700;BME280;62005;50.082;8.988;2023-11-18T01:51:43;101522.97;;;4.18;100.00
73700;BME280;62005;50.082;8.988;2023-11-18T01:54:11;101522.66;;;4.21;100.00
73700;BME280;62005;50.082;8.988;2023-11-18T01:56:41;101516.59;;;4.19;100.00
73700;BME280;62005;50.082;8.988;2023-11-18T01:59:09;101504.66;;;4.14;100.00
73700;BME280;62005;50.082;8.988;2023-11-18T02:01:35;101525.00;;;4.24;100.00
73700;BME280;62005;50.082;8.988;2023-11-18T02:04:01;101502.31;;;4.11;100.00
73700;BME280;62005;50.082;8.988;2023-11-18T02:06:27;101522.66;;;4.21;100.00
73700;BME280;62005;50.082;8.988;2023-11-18T02:08:53;101526.28;;;4.20;100.00
73700;BME280;62005;50.082;8.988;2023-11-18T02:14:14;101518.97;;;4.22;100.00
73700;BME280;62005;50.082;8.988;2023-11-18T02:16:42;101527.69;;;4.24;100.00
73700;BME280;62005;50.082;8.988;2023-11-18T02:19:19;101527.69;;;4.24;100.00
73700;BME280;62005;50.082;8.988;2023-11-18T02:21:45;101533.03;;;4.24;100.00
73700;BME280;62005;50.082;8.988;2023-11-18T02:24:24;101531.88;;;4.27;100.00
73700;BME280;62005;50.082;8.988;2023-11-18T02:26:49;101524.47;;;4.21;100.00
73700;BME280;62005;50.082;8.988;2023-11-18T02:29:15;101522.97;;;4.18;100.00
73700;BME280;62005;50.082;8.988;2023-11-18T02:31:40;101546.81;;;4.29;100.00
73700;BME280;62005;50.082;8.988;2023-11-18T02:34:18;101534.16;;;4.22;100.00
73700;BME280;62005;50.082;8.988;2023-11-18T02:36:48;101528.00;;;4.21;100.00
73700;BME280;62005;50.082;8.988;2023-11-18T02:39:22;101546.25;;;4.26;100.00
73700;BME280;62005;50.082;8.988;2023-11-18T02:41:54;101527.69;;;4.24;100.00
73700;BME280;62005;50.082;8.988;2023-11-18T02:44:22;101524.63;;;4.19;100.00
73700;BME280;62005;50.082;8.988;2023-11-18T02:46:48;101536.41;;;4.26;100.00
73700;BME280;62005;50.082;8.988;2023-11-18T02:49:13;101504.44;;;4.07;100.00
73700;BME280;62005;50.082;8.988;2023-11-18T02:51:39;101522.97;;;4.18;100.00
73700;BME280;62005;50.082;8.988;2023-11-18T02:54:08;101531.06;;;4.26;100.00
73700;BME280;62005;50.082;8.988;2023-11-18T02:56:36;101524.63;;;4.19;100.00
73700;BME280;62005;50.082;8.988;2023-11-18T02:59:01;101524.63;;;4.19;100.00
73700;BME280;62005;50.082;8.988;2023-11-18T03:01:30;101524.63;;;4.19;100.00
73700;BME280;62005;50.082;8.988;2023-11-18T03:03:55;101530.50;;;4.23;100.00
73700;BME280;62005;50.082;8.988;2023-11-18T03:06:21;101517.88;;;4.15;100.00
73700;BME280;62005;50.082;8.988;2023-11-18T03:08:46;101513.06;;;4.19;100.00
73700;BME280;62005;50.082;8.988;2023-11-18T03:11:14;101502.22;;;4.20;100.00
73700;BME280;62005;50.082;8.988;2023-11-18T03:13:40;101509.94;;;4.23;100.00
73700;BME280;62005;50.082;8.988;2023-11-18T03:16:08;101513.59;;;4.22;100.00
73700;BME280;62005;50.082;8.988;2023-11-18T03:18:41;101511.94;;;4.21;100.00
73700;BME280;62005;50.082;8.988;2023-11-18T03:21:11;101503.53;;;4.16;100.00
73700;BME280;62005;50.082;8.988;2023-11-18T03:23:38;101509.66;;;4.26;100.00
73700;BME280;62005;50.082;8.988;2023-11-18T03:26:03;101511.63;;;4.24;100.00
73700;BME280;62005;50.082;8.988;2023-11-18T03:28:30;101491.69;;;4.01;100.00
73700;BME280;62005;50.082;8.988;2023-11-18T03:30:56;101492.19;;;3.87;100.00
73700;BME280;62005;50.082;8.988;2023-11-18T03:33:22;101496.78;;;3.77;100.00
73700;BME280;62005;50.082;8.988;2023-11-18T03:35:47;101502.50;;;3.82;100.00
73700;BME280;62005;50.082;8.988;2023-11-18T03:38:13;101492.91;;;3.89;100.00
73700;BME280;62005;50.082;8.988;2023-11-18T03:40:40;101510.41;;;4.01;100.00
73700;BME280;62005;50.082;8.988;2023-11-18T03:43:06;101465.19;;;3.90;100.00
73700;BME280;62005;50.082;8.988;2023-11-18T03:45:32;101490.09;;;4.08;100.00
73700;BME280;62005;50.082;8.988;2023-11-18T03:47:58;101490.09;;;4.08;100.00
73700;BME280;62005;50.082;8.988;2023-11-18T03:50:24;101488.84;;;4.20;100.00
73700;BME280;62005;50.082;8.988;2023-11-18T03:52:49;101474.25;;;4.15;100.00
73700;BME280;62005;50.082;8.988;2023-11-18T03:55:15;101469.72;;;4.15;100.00
73700;BME280;62005;50.082;8.988;2023-11-18T03:57:40;101477.53;;;4.26;100.00
73700;BME280;62005;50.082;8.988;2023-11-18T04:00:06;101486.53;;;4.25;100.00
73700;BME280;62005;50.082;8.988;2023-11-18T04:02:32;101485.94;;;4.31;100.00
73700;BME280;62005;50.082;8.988;2023-11-18T04:04:59;101483.31;;;4.39;100.00
73700;BME280;62005;50.082;8.988;2023-11-18T04:07:24;101474.91;;;4.34;100.00
73700;BME280;62005;50.082;8.988;2023-11-18T04:09:50;101436.25;;;4.11;100.00
73700;BME280;62005;50.082;8.988;2023-11-18T04:12:15;101480.81;;;4.38;100.00
73700;BME280;62005;50.082;8.988;2023-11-18T04:14:41;101494.78;;;4.49;100.00
73700;BME280;62005;50.082;8.988;2023-11-18T04:17:06;101484.66;;;4.43;100.00
73700;BME280;62005;50.082;8.988;2023-11-18T04:19:32;101489.41;;;4.49;100.00
73700;BME280;62005;50.082;8.988;2023-11-18T04:21:57;101497.81;;;4.54;100.00
73700;BME280;62005;50.082;8.988;2023-11-18T04:24:22;101487.41;;;4.51;100.00
73700;BME280;62005;50.082;8.988;2023-11-18T04:26:48;101486.81;;;4.57;100.00
73700;BME280;62005;50.082;8.988;2023-11-18T04:29:14;101480.75;;;4.55;100.00
73700;BME280;62005;50.082;8.988;2023-11-18T04:31:39;101448.38;;;4.41;100.00
73700;BME280;62005;50.082;8.988;2023-11-18T04:34:05;101478.28;;;4.62;100.00
73700;BME280;62005;50.082;8.988;2023-11-18T04:36:30;101486.84;;;4.65;100.00
73700;BME280;62005;50.082;8.988;2023-11-18T04:38:56;101474.91;;;4.60;100.00
73700;BME280;62005;50.082;8.988;2023-11-18T04:41:22;101479.50;;;4.67;100.00
73700;BME280;62005;50.082;8.988;2023-11-18T04:43:47;101470.78;;;4.65;100.00
73700;BME280;62005;50.082;8.988;2023-11-18T04:46:13;101473.13;;;4.68;100.00
73700;BME280;62005;50.082;8.988;2023-11-18T04:48:38;101487.22;;;4.70;100.00
73700;BME280;62005;50.082;8.988;2023-11-18T04:51:04;101498.31;;;4.75;100.00
73700;BME280;62005;50.082;8.988;2023-11-18T04:53:31;101502.66;;;4.76;100.00
73700;BME280;62005;50.082;8.988;2023-11-18T04:55:57;101507.69;;;4.79;100.00
73700;BME280;62005;50.082;8.988;2023-11-18T04:58:23;101482.13;;;4.59;100.00
73700;BME280;62005;50.082;8.988;2023-11-18T05:00:49;101509.69;;;4.77;100.00
73700;BME280;62005;50.082;8.988;2023-11-18T05:03:18;101502.66;;;4.76;100.00
73700;BME280;62005;50.082;8.988;2023-11-18T05:05:43;101523.75;;;4.79;100.00
73700;BME280;62005;50.082;8.988;2023-11-18T05:08:18;101520.09;;;4.80;100.00
73700;BME280;62005;50.082;8.988;2023-11-18T05:10:48;101526.16;;;4.82;100.00
73700;BME280;62005;50.082;8.988;2023-11-18T05:13:13;101494.25;;;4.71;100.00
73700;BME280;62005;50.082;8.988;2023-11-18T05:15:44;101501.31;;;4.72;100.00
73700;BME280;62005;50.082;8.988;2023-11-18T05:18:11;101492.56;;;4.70;100.00
73700;BME280;62005;50.082;8.988;2023-11-18T05:20:39;101498.78;;;4.71;100.00
73700;BME280;62005;50.082;8.988;2023-11-18T05:23:04;101502.22;;;4.63;100.00
73700;BME280;62005;50.082;8.988;2023-11-18T05:25:29;101495.44;;;4.51;100.00
73700;BME280;62005;50.082;8.988;2023-11-18T05:27:55;101498.75;;;4.45;100.00
73700;BME280;62005;50.082;8.988;2023-11-18T05:30:20;101490.41;;;4.48;100.00
73700;BME280;62005;50.082;8.988;2023-11-18T05:32:45;101486.06;;;4.47;100.00
73700;BME280;62005;50.082;8.988;2023-11-18T05:35:11;101481.94;;;4.35;100.00
73700;BME280;62005;50.082;8.988;2023-11-18T05:37:37;101479.94;;;4.37;100.00
73700;BME280;62005;50.082;8.988;2023-11-18T05:40:06;101484.38;;;4.46;100.00
73700;BME280;62005;50.082;8.988;2023-11-18T05:42:36;101473.69;;;4.46;100.00
73700;BME280;62005;50.082;8.988;2023-11-18T05:45:03;101456.56;;;4.39;100.00
73700;BME280;62005;50.082;8.988;2023-11-18T05:47:29;101468.31;;;4.46;100.00
73700;BME280;62005;50.082;8.988;2023-11-18T05:49:55;101463.56;;;4.40;100.00
73700;BME280;62005;50.082;8.988;2023-11-18T05:52:21;101456.88;;;4.36;100.00
73700;BME280;62005;50.082;8.988;2023-11-18T05:54:47;101473.16;;;4.43;100.00
73700;BME280;62005;50.082;8.988;2023-11-18T05:57:14;101421.94;;;4.20;100.00
73700;BME280;62005;50.082;8.988;2023-11-18T05:59:40;101456.28;;;4.50;100.00
73700;BME280;62005;50.082;8.988;2023-11-18T06:02:05;101445.53;;;4.42;100.00
73700;BME280;62005;50.082;8.988;2023-11-18T06:04:30;101421.38;;;4.34;100.00
73700;BME280;62005;50.082;8.988;2023-11-18T06:06:56;101448.56;;;4.47;100.00
73700;BME280;62005;50.082;8.988;2023-11-18T06:09:22;101419.69;;;4.33;100.00
73700;BME280;62005;50.082;8.988;2023-11-18T06:11:50;101442.59;;;4.53;100.00
73700;BME280;62005;50.082;8.988;2023-11-18T06:14:16;101408.97;;;4.33;100.00
73700;BME280;62005;50.082;8.988;2023-11-18T06:16:42;101456.34;;;4.58;100.00
73700;BME280;62005;50.082;8.988;2023-11-18T06:19:07;101444.94;;;4.56;100.00
73700;BME280;62005;50.082;8.988;2023-11-18T06:21:33;101445.31;;;4.61;100.00
73700;BME280;62005;50.082;8.988;2023-11-18T06:24:00;101450.50;;;4.63;100.00
73700;BME280;62005;50.082;8.988;2023-11-18T06:26:26;101423.78;;;4.45;100.00
73700;BME280;62005;50.082;8.988;2023-11-18T06:28:53;101459.38;;;4.63;100.00
73700;BME280;62005;50.082;8.988;2023-11-18T06:31:19;101426.09;;;4.40;100.00
73700;BME280;62005;50.082;8.988;2023-11-18T06:33:46;101464.41;;;4.66;100.00
73700;BME280;62005;50.082;8.988;2023-11-18T06:38:45;101470.09;;;4.63;100.00
73700;BME280;62005;50.082;8.988;2023-11-18T06:41:11;101479.13;;;4.62;100.00
73700;BME280;62005;50.082;8.988;2023-11-18T06:43:38;101485.56;;;4.69;100.00
73700;BME280;62005;50.082;8.988;2023-11-18T06:46:30;101486.91;;;4.73;100.00
73700;BME280;62005;50.082;8.988;2023-11-18T06:49:00;101494.28;;;4.79;100.00
73700;BME280;62005;50.082;8.988;2023-11-18T06:51:29;101486.56;;;4.76;100.00
73700;BME280;62005;50.082;8.988;2023-11-18T06:53:57;101467.47;;;4.71;100.00
73700;BME280;62005;50.082;8.988;2023-11-18T06:56:24;101480.28;;;4.85;100.00
73700;BME280;62005;50.082;8.988;2023-11-18T06:58:49;101489.38;;;4.92;100.00
73700;BME280;62005;50.082;8.988;2023-11-18T07:01:15;101479.44;;;4.85;100.00
73700;BME280;62005;50.082;8.988;2023-11-18T07:03:44;101488.03;;;4.96;100.00
73700;BME280;62005;50.082;8.988;2023-11-18T07:06:10;101479.63;;;4.91;100.00
73700;BME280;62005;50.082;8.988;2023-11-18T07:08:36;101485.03;;;4.99;100.00
73700;BME280;62005;50.082;8.988;2023-11-18T07:11:03;101481.53;;;4.99;100.00
73700;BME280;62005;50.082;8.988;2023-11-18T07:13:29;101485.72;;;5.01;100.00
73700;BME280;62005;50.082;8.988;2023-11-18T07:15:54;101490.91;;;5.03;100.00
73700;BME280;62005;50.082;8.988;2023-11-18T07:18:22;101487.38;;;5.02;100.00
73700;BME280;62005;50.082;8.988;2023-11-18T07:20:50;101492.47;;;5.05;100.00
73700;BME280;62005;50.082;8.988;2023-11-18T07:23:18;101483.41;;;5.06;100.00
73700;BME280;62005;50.082;8.988;2023-11-18T07:25:44;101478.91;;;5.07;100.00
73700;BME280;62005;50.082;8.988;2023-11-18T07:28:12;101465.97;;;5.02;100.00
73700;BME280;62005;50.082;8.988;2023-11-18T07:30:43;101455.25;;;5.02;100.00
73700;BME280;62005;50.082;8.988;2023-11-18T07:33:14;101467.53;;;5.13;100.00
73700;BME280;62005;50.082;8.988;2023-11-18T07:35:39;101457.31;;;5.16;100.00
73700;BME280;62005;50.082;8.988;2023-11-18T07:38:05;101461.22;;;5.22;100.00
73700;BME280;62005;50.082;8.988;2023-11-18T07:40:33;101460.69;;;5.18;100.00
73700;BME280;62005;50.082;8.988;2023-11-18T07:42:59;101479.69;;;5.33;100.00
73700;BME280;62005;50.082;8.988;2023-11-18T07:45:27;101477.34;;;5.38;100.00
73700;BME280;62005;50.082;8.988;2023-11-18T07:47:54;101482.56;;;5.48;100.00
73700;BME280;62005;50.082;8.988;2023-11-18T07:50:20;101499.50;;;5.48;100.00
73700;BME280;62005;50.082;8.988;2023-11-18T07:52:49;101490.44;;;5.49;100.00
73700;BME280;62005;50.082;8.988;2023-11-18T07:55:15;101490.28;;;5.51;100.00
73700;BME280;62005;50.082;8.988;2023-11-18T07:57:41;101496.00;;;5.56;100.00
73700;BME280;62005;50.082;8.988;2023-11-18T08:00:08;101481.28;;;5.60;100.00
73700;BME280;62005;50.082;8.988;2023-11-18T08:02:36;101480.94;;;5.63;100.00
73700;BME280;62005;50.082;8.988;2023-11-18T08:05:05;101483.63;;;5.63;100.00
73700;BME280;62005;50.082;8.988;2023-11-18T08:07:34;101500.41;;;5.65;100.00
73700;BME280;62005;50.082;8.988;2023-11-18T08:10:02;101498.06;;;5.62;100.00
73700;BME280;62005;50.082;8.988;2023-11-18T08:12:30;101502.06;;;5.66;100.00
73700;BME280;62005;50.082;8.988;2023-11-18T08:14:55;101496.69;;;5.66;100.00
73700;BME280;62005;50.082;8.988;2023-11-18T08:17:20;101493.03;;;5.67;100.00
73700;BME280;62005;50.082;8.988;2023-11-18T08:19:46;101493.06;;;5.75;100.00
73700;BME280;62005;50.082;8.988;2023-11-18T08:22:11;101493.06;;;5.75;100.00
73700;BME280;62005;50.082;8.988;2023-11-18T08:24:37;101497.06;;;5.79;100.00
73700;BME280;62005;50.082;8.988;2023-11-18T08:27:03;101489.19;;;5.77;100.00
73700;BME280;62005;50.082;8.988;2023-11-18T08:29:29;101476.09;;;5.66;100.00
73700;BME280;62005;50.082;8.988;2023-11-18T08:31:57;101500.13;;;5.84;100.00
73700;BME280;62005;50.082;8.988;2023-11-18T08:34:22;101499.59;;;5.80;100.00
73700;BME280;62005;50.082;8.988;2023-11-18T08:36:51;101490.41;;;5.83;100.00
73700;BME280;62005;50.082;8.988;2023-11-18T08:39:17;101482.03;;;5.86;100.00
73700;BME280;62005;50.082;8.988;2023-11-18T08:41:44;101482.56;;;5.89;100.00
73700;BME280;62005;50.082;8.988;2023-11-18T08:44:11;101485.41;;;5.88;100.00
73700;BME280;62005;50.082;8.988;2023-11-18T08:46:38;101450.13;;;5.67;100.00
73700;BME280;62005;50.082;8.988;2023-11-18T08:49:04;101484.38;;;5.97;100.00
73700;BME280;62005;50.082;8.988;2023-11-18T08:51:36;101463.25;;;5.86;100.00
73700;BME280;62005;50.082;8.988;2023-11-18T08:54:02;101477.34;;;5.96;100.00
73700;BME280;62005;50.082;8.988;2023-11-18T08:56:49;101482.72;;;5.96;100.00
73700;BME280;62005;50.082;8.988;2023-11-18T08:59:20;101482.38;;;5.99;100.00
73700;BME280;62005;50.082;8.988;2023-11-18T09:01:51;101472.31;;;5.93;100.00
73700;BME280;62005;50.082;8.988;2023-11-18T09:04:24;101478.38;;;6.03;100.00
73700;BME280;62005;50.082;8.988;2023-11-18T09:06:50;101453.88;;;5.98;100.00
73700;BME280;62005;50.082;8.988;2023-11-18T09:09:19;101421.97;;;5.79;100.00
73700;BME280;62005;50.082;8.988;2023-11-18T09:11:52;101440.63;;;5.96;100.00
73700;BME280;62005;50.082;8.988;2023-11-18T09:14:18;101459.94;;;6.08;100.00
73700;BME280;62005;50.082;8.988;2023-11-18T09:16:44;101480.72;;;6.14;100.00
73700;BME280;62005;50.082;8.988;2023-11-18T09:19:10;101472.69;;;6.14;100.00
73700;BME280;62005;50.082;8.988;2023-11-18T09:21:36;101459.59;;;6.11;100.00
73700;BME280;62005;50.082;8.988;2023-11-18T09:24:01;101465.81;;;6.19;100.00
73700;BME280;62005;50.082;8.988;2023-11-18T09:26:33;101450.19;;;6.15;100.00
73700;BME280;62005;50.082;8.988;2023-11-18T09:28:58;101466.16;;;6.24;100.00
73700;BME280;62005;50.082;8.988;2023-11-18T09:31:26;101470.66;;;6.24;100.00
73700;BME280;62005;50.082;8.988;2023-11-18T09:33:52;101480.25;;;6.34;100.00
73700;BME280;62005;50.082;8.988;2023-11-18T09:36:18;101464.09;;;6.26;100.00
73700;BME280;62005;50.082;8.988;2023-11-18T09:38:44;101482.59;;;6.37;100.00
73700;BME280;62005;50.082;8.988;2023-11-18T09:41:13;101435.09;;;6.14;100.00
73700;BME280;62005;50.082;8.988;2023-11-18T09:43:41;101465.63;;;6.37;100.00
73700;BME280;62005;50.082;8.988;2023-11-18T09:46:14;101466.63;;;6.44;100.00
73700;BME280;62005;50.082;8.988;2023-11-18T09:48:46;101483.41;;;6.54;100.00
73700;BME280;62005;50.082;8.988;2023-11-18T09:51:37;101465.94;;;6.50;100.00
73700;BME280;62005;50.082;8.988;2023-11-18T09:54:16;101467.13;;;6.55;100.00
73700;BME280;62005;50.082;8.988;2023-11-18T09:57:00;101471.97;;;6.60;100.00
73700;BME280;62005;50.082;8.988;2023-11-18T10:02:24;101447.78;;;6.68;100.00
73700;BME280;62005;50.082;8.988;2023-11-18T10:04:51;101467.41;;;6.77;100.00
73700;BME280;62005;50.082;8.988;2023-11-18T10:07:23;101457.16;;;6.80;100.00
73700;BME280;62005;50.082;8.988;2023-11-18T10:09:55;101441.06;;;6.80;100.00
73700;BME280;62005;50.082;8.988;2023-11-18T10:12:23;101450.78;;;6.89;100.00
73700;BME280;62005;50.082;8.988;2023-11-18T10:14:49;101454.09;;;6.91;100.00
73700;BME280;62005;50.082;8.988;2023-11-18T10:17:17;101447.22;;;6.97;100.00
73700;BME280;62005;50.082;8.988;2023-11-18T10:19:57;101426.88;;;6.94;100.00
73700;BME280;62005;50.082;8.988;2023-11-18T10:22:29;101425.72;;;6.97;100.00
73700;BME280;62005;50.082;8.988;2023-11-18T10:24:57;101439.97;;;7.05;100.00
73700;BME280;62005;50.082;8.988;2023-11-18T10:37:09;101427.50;;;7.12;100.00
73700;BME280;62005;50.082;8.988;2023-11-18T10:39:52;101451.63;;;7.28;100.00
73700;BME280;62005;50.082;8.988;2023-11-18T10:42:18;101384.22;;;6.91;100.00
73700;BME280;62005;50.082;8.988;2023-11-18T10:44:59;101438.50;;;7.33;100.00
73700;BME280;62005;50.082;8.988;2023-11-18T10:47:27;101425.72;;;7.35;100.00
73700;BME280;62005;50.082;8.988;2023-11-18T10:49:54;101432.75;;;7.36;100.00
73700;BME280;62005;50.082;8.988;2023-11-18T10:52:21;101429.41;;;7.34;100.00
73700;BME280;62005;50.082;8.988;2023-11-18T10:54:54;101428.72;;;7.40;100.00
73700;BME280;62005;50.082;8.988;2023-11-18T10:57:23;101411.25;;;7.36;100.00
73700;BME280;62005;50.082;8.988;2023-11-18T10:59:59;101410.53;;;7.42;100.00
73700;BME280;62005;50.082;8.988;2023-11-18T11:02:24;101398.47;;;7.38;100.00
73700;BME280;62005;50.082;8.988;2023-11-18T11:04:50;101403.78;;;7.46;100.00
73700;BME280;62005;50.082;8.988;2023-11-18T11:07:16;101397.75;;;7.44;100.00
73700;BME280;62005;50.082;8.988;2023-11-18T11:09:44;101382.81;;;7.42;100.00
73700;BME280;62005;50.082;8.988;2023-11-18T11:12:11;101400.38;;;7.52;100.00
73700;BME280;62005;50.082;8.988;2023-11-18T11:14:57;101388.94;;;7.50;100.00
73700;BME280;62005;50.082;8.988;2023-11-18T11:17:27;101395.31;;;7.57;100.00
73700;BME280;62005;50.082;8.988;2023-11-18T11:20:05;101380.19;;;7.56;100.00
73700;BME280;62005;50.082;8.988;2023-11-18T11:28:42;101359.50;;;7.57;100.00
73700;BME280;62005;50.082;8.988;2023-11-18T11:31:21;101342.88;;;7.53;100.00
73700;BME280;62005;50.082;8.988;2023-11-18T11:33:55;101362.63;;;7.68;100.00
73700;BME280;62005;50.082;8.988;2023-11-18T11:36:29;101333.91;;;7.61;100.00
73700;BME280;62005;50.082;8.988;2023-11-18T11:38:59;101347.78;;;7.72;100.00
73700;BME280;62005;50.082;8.988;2023-11-18T11:41:24;101344.41;;;7.70;100.00
73700;BME280;62005;50.082;8.988;2023-11-18T11:43:54;101336.16;;;7.72;100.00
73700;BME280;62005;50.082;8.988;2023-11-18T11:46:22;101306.44;;;7.65;100.00
73700;BME280;62005;50.082;8.988;2023-11-18T11:48:50;101295.50;;;7.67;100.00
73700;BME280;62005;50.082;8.988;2023-11-18T11:56:44;101298.38;;;7.65;100.00
73700;BME280;62005;50.082;8.988;2023-11-18T11:59:13;101299.69;;;7.69;100.00
73700;BME280;62005;50.082;8.988;2023-11-18T12:01:40;101278.53;;;7.66;100.00
73700;BME280;62005;50.082;8.988;2023-11-18T12:04:10;101286.34;;;7.76;100.00
73700;BME280;62005;50.082;8.988;2023-11-18T12:06:44;101276.16;;;7.71;100.00
73700;BME280;62005;50.082;8.988;2023-11-18T12:09:10;101286.16;;;7.77;100.00
73700;BME280;62005;50.082;8.988;2023-11-18T12:11:36;101299.06;;;7.82;100.00
73700;BME280;62005;50.082;8.988;2023-11-18T12:14:08;101281.75;;;7.84;100.00
73700;BME280;62005;50.082;8.988;2023-11-18T12:17:03;101278.03;;;7.85;100.00
73700;BME280;62005;50.082;8.988;2023-11-18T12:19:37;101271.44;;;7.88;100.00
73700;BME280;62005;50.082;8.988;2023-11-18T12:22:20;101270.03;;;7.92;100.00
73700;BME280;62005;50.082;8.988;2023-11-18T12:27:42;101260.78;;;7.94;100.00
73700;BME280;62005;50.082;8.988;2023-11-18T12:33:02;101255.88;;;7.98;100.00
73700;BME280;62005;50.082;8.988;2023-11-18T12:44:25;101248.88;;;8.04;100.00
73700;BME280;62005;50.082;8.988;2023-11-18T12:49:37;101238.13;;;8.04;100.00
73700;BME280;62005;50.082;8.988;2023-11-18T12:52:07;101226.06;;;8.00;100.00
73700;BME280;62005;50.082;8.988;2023-11-18T12:54:34;101232.34;;;8.07;100.00
73700;BME280;62005;50.082;8.988;2023-11-18T12:57:03;101223.28;;;8.08;100.00
73700;BME280;62005;50.082;8.988;2023-11-18T12:59:35;101216.59;;;8.04;100.00
73700;BME280;62005;50.082;8.988;2023-11-18T13:02:01;101226.63;;;8.10;100.00
73700;BME280;62005;50.082;8.988;2023-11-18T13:04:32;101219.19;;;8.12;100.00
73700;BME280;62005;50.082;8.988;2023-11-18T13:06:59;101222.16;;;8.17;100.00
73700;BME280;62005;50.082;8.988;2023-11-18T13:09:25;101206.84;;;8.17;100.00
73700;BME280;62005;50.082;8.988;2023-11-18T13:11:55;101184.38;;;8.10;100.00
73700;BME280;62005;50.082;8.988;2023-11-18T13:14:28;101189.84;;;8.17;100.00
73700;BME280;62005;50.082;8.988;2023-11-18T13:16:56;101186.13;;;8.18;100.00
73700;BME280;62005;50.082;8.988;2023-11-18T13:19:26;101188.63;;;8.19;100.00
73700;BME280;62005;50.082;8.988;2023-11-18T13:21:57;101175.38;;;8.18;100.00
73700;BME280;62005;50.082;8.988;2023-11-18T13:24:24;101170.78;;;8.18;100.00
73700;BME280;62005;50.082;8.988;2023-11-18T13:26:49;101120.81;;;7.94;100.00
73700;BME280;62005;50.082;8.988;2023-11-18T13:29:15;101160.88;;;8.19;100.00
73700;BME280;62005;50.082;8.988;2023-11-18T13:31:41;101153.81;;;8.18;100.00
73700;BME280;62005;50.082;8.988;2023-11-18T13:34:08;101153.81;;;8.18;100.00
73700;BME280;62005;50.082;8.988;2023-11-18T13:36:33;101169.25;;;8.24;100.00
73700;BME280;62005;50.082;8.988;2023-11-18T13:39:00;101164.59;;;8.18;100.00
73700;BME280;62005;50.082;8.988;2023-11-18T13:41:31;101126.56;;;7.91;100.00